.
WxDataArchive / Data Records for 2013-02-06
2013-02-05 February 2013 2013-02-07

Data Records for Wednesday, 06 February 2013

Time	Temp	Chill	HIndex	Humid	Dewpt	 Wind 	HiWind	WindDir	Rain 	Barom 
-----	----	-----	------	-----	-----	------	------	-------	-----	----- 
00:00	29.7	29.7	29.7	85	25.8	1	2	338	0.00	30.019 
00:05	29.7	29.7	29.7	85	25.8	0	3	338	0.00	30.019 
00:10	29.5	29.5	29.5	85	25.6	1	3	315	0.00	30.019 
00:15	29.5	29.5	29.5	85	25.6	0	3	315	0.00	30.029 
00:20	29.5	29.5	29.5	85	25.6	1	6	315	0.00	30.029 
00:25	29.5	29.5	29.5	84	25.3	1	4	315	0.00	30.029 
00:30	29.5	29.5	29.5	84	25.3	1	3	338	0.00	30.031 
00:35	29.5	29.5	29.5	84	25.3	1	3	338	0.00	30.031 
00:40	29.5	29.5	29.5	84	25.3	0	3	315	0.00	30.031 
00:45	29.5	29.5	29.5	83	25.0	1	2	315	0.00	30.041 
00:50	29.5	29.5	29.5	83	25.0	1	3	315	0.00	30.041 
00:55	29.5	29.5	29.5	82	24.7	2	4	248	0.00	30.041 
01:00	29.5	29.5	29.5	81	24.4	1	4	292	0.00	30.048 
01:05	29.7	29.7	29.7	81	24.6	1	3	338	0.00	30.048 
01:10	29.7	29.7	29.7	81	24.6	1	3	338	0.00	30.048 
01:15	29.7	29.7	29.7	80	24.3	1	4	248	0.00	30.056 
01:20	29.7	29.7	29.7	80	24.3	1	3	248	0.00	30.056 
01:25	29.7	29.7	29.7	80	24.3	1	2	248	0.00	30.056 
01:30	29.5	29.5	29.5	81	24.4	0	1	248	0.00	30.058 
01:35	29.5	29.5	29.5	81	24.4	0	2	248	0.00	30.058 
01:40	29.5	29.5	29.5	81	24.4	1	2	248	0.00	30.058 
01:45	29.5	29.5	29.5	80	24.1	1	2	248	0.00	30.061 
01:50	29.4	29.4	29.4	80	24.0	1	2	248	0.00	30.061 
01:55	29.4	29.4	29.4	80	24.0	1	3	248	0.00	30.061 
02:00	29.4	29.4	29.4	80	24.0	0	2	248	0.00	30.072 
02:05	29.3	29.3	29.3	79	23.6	1	2	315	0.00	30.072 
02:10	29.3	29.3	29.3	78	23.3	1	2	315	0.00	30.072 
02:15	29.3	29.3	29.3	78	23.3	1	2	315	0.00	30.072 
02:20	29.3	29.3	29.3	78	23.3	0	2	315	0.00	30.072 
02:25	29.3	29.3	29.3	77	23.0	1	3	270	0.00	30.072 
02:30	29.3	29.3	29.3	77	23.0	0	1	270	0.00	30.077 
02:35	29.3	29.3	29.3	77	23.0	0	2	270	0.00	30.077 
02:40	29.3	29.3	29.3	77	23.0	1	2	270	0.00	30.077 
02:45	29.3	29.3	29.3	77	23.0	0	2	270	0.00	30.092 
02:50	29.3	29.3	29.3	77	23.0	0	2	270	0.00	30.092 
02:55	29.3	29.3	29.3	77	23.0	1	2	270	0.00	30.092 
03:00	29.1	29.1	29.1	77	22.8	1	2	270	0.00	30.109 
03:05	29.1	29.1	29.1	77	22.8	0	1	270	0.00	30.109 
03:10	29.1	29.1	29.1	77	22.8	1	2	270	0.00	30.109 
03:15	29.1	29.1	29.1	76	22.5	1	2	270	0.00	30.112 
03:20	29.1	29.1	29.1	76	22.5	0	1	270	0.00	30.112 
03:25	29.1	29.1	29.1	75	22.2	1	4	270	0.00	30.112 
03:30	29.1	29.1	29.1	75	22.2	1	3	270	0.00	30.115 
03:35	29.1	29.1	29.1	74	21.9	1	3	270	0.00	30.115 
03:40	29.1	29.1	29.1	73	21.5	1	3	292	0.00	30.115 
03:45	29.0	29.0	29.0	73	21.4	1	3	292	0.00	30.112 
03:50	29.0	29.0	29.0	73	21.4	0	2	292	0.00	30.112 
03:55	29.0	29.0	29.0	72	21.1	0	2	292	0.00	30.112 
04:00	29.0	29.0	29.0	72	21.1	1	3	292	0.00	30.110 
04:05	29.0	29.0	29.0	72	21.1	0	2	292	0.00	30.110 
04:10	29.0	29.0	29.0	72	21.1	0	3	292	0.00	30.110 
04:15	29.0	29.0	29.0	72	21.1	1	3	292	0.00	30.119 
04:20	28.8	28.8	28.8	73	21.3	0	2	22	0.00	30.119 
04:25	28.8	28.8	28.8	73	21.3	0	1	22	0.00	30.119 
04:30	28.8	28.8	28.8	73	21.3	0	1	22	0.00	30.124 
04:35	28.7	28.7	28.7	73	21.2	0	1	22	0.00	30.124 
04:40	28.7	28.7	28.7	73	21.2	0	2	22	0.00	30.124 
04:45	28.5	28.5	28.5	74	21.3	0	2	22	0.00	30.135 
04:50	28.5	28.5	28.5	74	21.3	1	2	0	0.00	30.135 
04:55	28.2	28.2	28.2	73	20.7	0	2	0	0.00	30.135 
05:00	28.1	28.1	28.1	73	20.6	0	2	22	0.00	30.142 
05:05	27.8	27.8	27.8	74	20.6	0	2	22	0.00	30.142 
05:10	27.6	27.6	27.6	74	20.4	0	2	22	0.00	30.142 
05:15	27.5	27.5	27.5	74	20.3	0	1	22	0.00	30.151 
05:20	27.3	27.3	27.3	75	20.4	0	0	---	0.00	30.151 
05:25	27.2	27.2	27.2	75	20.3	0	1	22	0.00	30.151 
05:30	27.0	27.0	27.0	75	20.2	0	1	22	0.00	30.158 
05:35	27.0	27.0	27.0	75	20.2	0	1	22	0.00	30.158 
05:40	26.9	26.9	26.9	75	20.1	0	1	22	0.00	30.158 
05:45	26.9	26.9	26.9	75	20.1	0	1	22	0.00	30.173 
05:50	26.7	26.7	26.7	75	19.9	0	0	---	0.00	30.173 
05:55	26.7	26.7	26.7	75	19.9	0	0	---	0.00	30.173 
06:00	26.6	26.6	26.6	75	19.8	0	0	---	0.00	30.187 
06:05	26.6	26.6	26.6	75	19.8	0	0	---	0.00	30.187 
06:10	26.4	26.4	26.4	75	19.6	0	0	---	0.00	30.187 
06:15	26.4	26.4	26.4	75	19.6	0	0	---	0.00	30.195 
06:20	26.3	26.3	26.3	76	19.8	0	0	---	0.00	30.195 
06:25	26.3	26.3	26.3	76	19.8	0	1	22	0.00	30.195 
06:30	26.3	26.3	26.3	76	19.8	0	0	---	0.00	30.203 
06:35	26.1	26.1	26.1	76	19.6	0	0	---	0.00	30.203 
06:40	26.1	26.1	26.1	77	19.9	0	0	---	0.00	30.203 
06:45	26.0	26.0	26.0	77	19.8	0	0	---	0.00	30.205 
06:50	25.8	25.8	25.8	77	19.6	0	0	---	0.00	30.205 
06:55	25.7	25.7	25.7	77	19.5	0	0	---	0.00	30.205 
07:00	25.7	25.7	25.7	77	19.5	0	0	---	0.00	30.219 
07:05	25.6	25.6	25.6	77	19.4	0	0	---	0.00	30.219 
07:10	25.4	25.4	25.4	77	19.2	0	0	---	0.00	30.219 
07:15	25.3	25.3	25.3	77	19.1	0	0	---	0.00	30.225 
07:20	25.1	25.1	25.1	77	18.9	0	0	---	0.00	30.225 
07:25	25.0	25.0	25.0	77	18.8	0	0	---	0.00	30.225 
07:30	24.8	24.8	24.8	77	18.6	0	0	---	0.00	30.236 
07:35	24.7	24.7	24.7	77	18.5	0	0	---	0.00	30.236 
07:40	24.5	24.5	24.5	77	18.3	0	0	---	0.00	30.236 
07:45	24.4	24.4	24.4	78	18.5	0	0	---	0.00	30.245 
07:50	24.2	24.2	24.2	78	18.3	0	0	---	0.00	30.245 
07:55	23.9	23.9	23.9	78	18.1	0	0	---	0.00	30.245 
08:00	23.6	23.6	23.6	78	17.8	0	0	---	0.00	30.253 
08:05	23.5	23.5	23.5	78	17.7	0	0	---	0.00	30.253 
08:10	23.2	23.2	23.2	78	17.4	0	0	---	0.00	30.253 
08:15	22.9	22.9	22.9	79	17.4	0	0	---	0.00	30.255 
08:20	22.5	22.5	22.5	79	17.0	0	0	---	0.00	30.255 
08:25	22.2	22.2	22.2	79	16.7	0	0	---	0.00	30.255 
08:30	22.2	22.2	22.2	80	17.0	0	0	---	0.00	30.256 
08:35	22.5	22.5	22.5	80	17.3	0	0	---	0.00	30.256 
08:40	22.9	22.9	22.9	80	17.7	0	0	---	0.00	30.256 
08:45	23.3	23.3	23.3	81	18.3	0	0	---	0.00	30.255 
08:50	24.1	24.1	24.1	79	18.5	0	0	---	0.00	30.255 
08:55	25.0	25.0	25.0	78	19.1	0	0	---	0.00	30.255 
09:00	25.8	25.8	25.8	76	19.3	0	0	---	0.00	30.254 
09:05	26.7	26.7	26.7	74	19.5	0	1	22	0.00	30.254 
09:10	27.5	27.5	27.5	71	19.4	0	1	68	0.00	30.254 
09:15	27.6	27.6	27.6	68	18.4	1	2	68	0.00	30.257 
09:20	27.5	27.5	27.5	68	18.3	1	2	68	0.00	30.257 
09:25	27.6	27.6	27.6	68	18.4	0	2	68	0.00	30.257 
09:30	28.4	28.4	28.4	68	19.2	0	1	68	0.00	30.253 
09:35	29.3	29.3	29.3	66	19.4	0	2	68	0.00	30.253 
09:40	29.7	29.7	29.7	64	19.0	0	1	68	0.00	30.253 
09:45	30.3	30.3	30.3	62	18.9	0	2	68	0.00	30.251 
09:50	30.7	30.7	30.7	61	18.9	0	2	68	0.01	30.251 
09:55	30.9	30.9	30.9	60	18.7	1	2	68	0.00	30.251 
10:00	30.1	30.1	30.1	61	18.3	1	3	68	0.00	30.260 
10:05	29.4	29.4	29.4	62	18.0	2	4	68	0.00	30.260 
10:10	28.7	28.7	28.7	61	17.0	2	5	68	0.00	30.260 
10:15	28.4	28.4	28.4	60	16.3	3	5	90	0.00	30.264 
10:20	27.9	27.9	27.9	60	15.8	2	5	90	0.00	30.264 
10:25	27.8	27.8	27.8	61	16.1	3	4	90	0.00	30.264 
10:30	27.8	27.8	27.8	62	16.5	2	5	90	0.00	30.267 
10:35	27.9	27.9	27.9	60	15.8	2	4	90	0.00	30.267 
10:40	27.9	27.9	27.9	60	15.8	2	5	90	0.00	30.267 
10:45	28.2	28.2	28.2	60	16.1	1	4	90	0.00	30.276 
10:50	28.7	28.7	28.7	60	16.6	0	2	90	0.00	30.276 
10:55	29.3	29.3	29.3	59	16.8	1	3	90	0.01	30.276 
11:00	29.7	29.7	29.7	58	16.8	1	4	90	0.00	30.281 
11:05	29.7	29.7	29.7	57	16.4	1	2	90	0.00	30.281 
11:10	29.3	29.3	29.3	57	16.0	2	5	90	0.00	30.281 
11:15	29.1	29.1	29.1	56	15.4	0	2	90	0.00	30.289 
11:20	29.0	29.0	29.0	56	15.3	1	4	90	0.01	30.289 
11:25	28.8	28.8	28.8	56	15.1	1	5	90	0.00	30.289 
11:30	28.5	28.5	28.5	54	14.0	2	5	90	0.00	30.293 
11:35	28.1	28.1	28.1	55	14.0	2	6	112	0.00	30.293 
11:40	28.1	28.1	28.1	56	14.5	1	3	112	0.00	30.293 
11:45	28.4	28.4	28.4	57	15.1	1	4	112	0.00	30.294 
11:50	28.7	28.7	28.7	56	15.0	1	4	112	0.00	30.294 
11:55	28.7	28.7	28.7	56	15.0	1	4	112	0.00	30.294 
12:00	28.7	28.7	28.7	56	15.0	1	3	112	0.00	30.298 
12:05	29.0	29.0	29.0	56	15.3	0	2	112	0.00	30.298 
12:10	29.3	29.3	29.3	57	16.0	1	3	112	0.00	30.298 
12:15	29.5	29.5	29.5	56	15.8	1	3	112	0.00	30.285 
12:20	29.5	29.5	29.5	56	15.8	1	4	112	0.00	30.285 
12:25	29.5	29.5	29.5	56	15.8	1	3	112	0.00	30.285 
12:30	29.5	29.5	29.5	55	15.3	1	3	68	0.00	30.280 
12:35	29.4	29.4	29.4	56	15.7	2	5	68	0.00	30.280 
12:40	29.4	29.4	29.4	56	15.7	1	3	90	0.00	30.280 
12:45	29.4	29.4	29.4	55	15.3	2	5	68	0.00	30.282 
12:50	29.5	29.5	29.5	56	15.8	1	3	68	0.00	30.282 
12:55	29.5	29.5	29.5	56	15.8	2	5	68	0.00	30.282 
13:00	29.5	29.5	29.5	56	15.8	2	5	90	0.00	30.266 
13:05	29.4	29.4	29.4	56	15.7	2	4	90	0.00	30.266 
13:10	29.4	29.4	29.4	55	15.3	3	6	90	0.00	30.266 
13:15	29.4	29.4	29.4	56	15.7	1	3	90	0.00	30.280 
13:20	29.5	29.5	29.5	55	15.3	1	4	135	0.00	30.280 
13:25	29.4	29.4	29.4	55	15.3	2	5	112	0.00	30.280 
13:30	29.3	29.3	29.3	55	15.2	3	7	90	0.00	30.277 
13:35	29.1	29.1	29.1	56	15.4	3	7	90	0.00	30.277 
13:40	29.1	29.1	29.1	56	15.4	3	6	90	0.00	30.277 
13:45	29.1	29.1	29.1	55	15.0	3	5	112	0.00	30.271 
13:50	29.1	29.1	29.1	55	15.0	2	5	90	0.00	30.271 
13:55	29.4	29.4	29.4	55	15.3	2	5	90	0.00	30.271 
14:00	29.5	29.5	29.5	55	15.3	1	4	90	0.00	30.267 
14:05	29.5	29.5	29.5	54	14.9	1	3	112	0.00	30.267 
14:10	29.4	29.4	29.4	54	14.8	2	5	90	0.00	30.267 
14:15	29.5	29.5	29.5	54	14.9	2	4	90	0.00	30.264 
14:20	29.5	29.5	29.5	54	14.9	2	6	112	0.00	30.264 
14:25	29.5	29.5	29.5	54	14.9	2	10	90	0.00	30.264 
14:30	29.4	29.4	29.4	54	14.8	2	7	90	0.00	30.269 
14:35	29.4	29.4	29.4	54	14.8	1	3	90	0.00	30.269 
14:40	29.4	29.4	29.4	54	14.8	2	6	90	0.00	30.269 
14:45	29.5	29.5	29.5	55	15.3	1	5	90	0.00	30.269 
14:50	29.5	29.5	29.5	54	14.9	2	5	112	0.00	30.269 
14:55	29.5	29.5	29.5	54	14.9	1	6	112	0.00	30.269 
15:00	29.4	29.4	29.4	55	15.3	3	5	112	0.00	30.281 
15:05	29.5	29.5	29.5	56	15.8	1	4	90	0.00	30.281 
15:10	29.8	29.8	29.8	56	16.0	1	3	112	0.00	30.281 
15:15	30.0	30.0	30.0	56	16.2	2	5	90	0.00	30.275 
15:20	30.0	30.0	30.0	55	15.8	2	6	112	0.00	30.275 
15:25	29.8	29.8	29.8	55	15.6	2	6	90	0.00	30.275 
15:30	29.8	29.8	29.8	55	15.6	1	4	90	0.00	30.268 
15:35	29.8	29.8	29.8	56	16.0	2	5	90	0.00	30.268 
15:40	29.8	29.8	29.8	56	16.0	1	3	112	0.00	30.268 
15:45	29.8	29.8	29.8	56	16.0	1	4	90	0.00	30.267 
15:50	29.8	29.8	29.8	56	16.0	1	4	90	0.00	30.267 
15:55	29.8	29.8	29.8	57	16.4	1	5	112	0.00	30.267 
16:00	29.8	29.8	29.8	57	16.4	1	4	112	0.00	30.280 
16:05	29.7	29.7	29.7	57	16.4	2	5	112	0.00	30.280 
16:10	29.7	29.7	29.7	57	16.4	1	3	112	0.00	30.280 
16:15	29.5	29.5	29.5	57	16.2	2	5	112	0.00	30.278 
16:20	29.4	29.4	29.4	58	16.5	1	6	112	0.00	30.278 
16:25	29.4	29.4	29.4	57	16.1	1	3	112	0.00	30.278 
16:30	29.4	29.4	29.4	57	16.1	1	2	112	0.00	30.285 
16:35	29.4	29.4	29.4	57	16.1	1	4	112	0.00	30.285 
16:40	29.4	29.4	29.4	57	16.1	1	4	135	0.00	30.285 
16:45	29.4	29.4	29.4	58	16.5	1	3	135	0.00	30.286 
16:50	29.3	29.3	29.3	58	16.4	1	3	112	0.00	30.286 
16:55	29.1	29.1	29.1	58	16.2	1	3	135	0.00	30.286 
17:00	29.1	29.1	29.1	58	16.2	1	3	135	0.00	30.283 
17:05	29.0	29.0	29.0	58	16.1	1	3	135	0.00	30.283 
17:10	28.8	28.8	28.8	58	15.9	1	2	90	0.00	30.283 
17:15	28.7	28.7	28.7	58	15.8	0	3	90	0.00	30.284 
17:20	28.5	28.5	28.5	58	15.6	0	3	112	0.00	30.284 
17:25	28.4	28.4	28.4	58	15.5	0	2	112	0.00	30.284 
17:30	28.2	28.2	28.2	59	15.7	1	2	112	0.00	30.285 
17:35	28.1	28.1	28.1	59	15.6	0	1	112	0.00	30.285 
17:40	27.8	27.8	27.8	59	15.4	0	2	112	0.00	30.285 
17:45	27.5	27.5	27.5	60	15.5	1	4	112	0.00	30.277 
17:50	27.3	27.3	27.3	60	15.3	1	2	112	0.00	30.277 
17:55	27.2	27.2	27.2	60	15.2	1	2	112	0.00	30.277 
18:00	27.0	27.0	27.0	61	15.4	0	2	112	0.00	30.281 
18:05	26.7	26.7	26.7	61	15.1	1	3	112	0.00	30.281 
18:10	26.6	26.6	26.6	62	15.4	1	2	112	0.00	30.281 
18:15	26.3	26.3	26.3	62	15.1	1	3	112	0.00	30.273 
18:20	26.0	26.0	26.0	62	14.8	2	5	112	0.00	30.273 
18:25	25.7	25.7	25.7	62	14.5	1	3	112	0.00	30.273 
18:30	25.4	25.4	25.4	63	14.6	0	1	112	0.00	30.269 
18:35	25.3	25.3	25.3	63	14.5	0	1	112	0.00	30.269 
18:40	25.0	25.0	25.0	64	14.6	0	3	112	0.00	30.269 
18:45	24.7	24.7	24.7	64	14.3	0	0	---	0.00	30.283 
18:50	24.5	24.5	24.5	64	14.1	0	1	112	0.00	30.283 
18:55	24.4	24.4	24.4	64	14.0	0	0	---	0.00	30.283 
19:00	24.2	24.2	24.2	65	14.2	0	1	112	0.00	30.290 
19:05	24.2	24.2	24.2	65	14.2	0	1	112	0.00	30.290 
19:10	24.2	24.2	24.2	65	14.2	0	1	112	0.00	30.290 
19:15	24.2	24.2	24.2	65	14.2	0	2	112	0.00	30.293 
19:20	24.4	24.4	24.4	65	14.3	1	2	112	0.00	30.293 
19:25	24.7	24.7	24.7	65	14.6	0	2	112	0.00	30.293 
19:30	24.7	24.7	24.7	65	14.6	1	2	112	0.00	30.289 
19:35	24.5	24.5	24.5	65	14.4	0	2	112	0.00	30.289 
19:40	24.4	24.4	24.4	65	14.3	1	3	112	0.00	30.289 
19:45	24.2	24.2	24.2	65	14.2	1	2	112	0.00	30.279 
19:50	24.1	24.1	24.1	65	14.1	1	4	112	0.00	30.279 
19:55	24.1	24.1	24.1	65	14.1	1	2	90	0.00	30.279 
20:00	24.1	24.1	24.1	65	14.1	1	2	90	0.00	30.277 
20:05	24.1	24.1	24.1	65	14.1	1	3	90	0.00	30.277 
20:10	23.9	23.9	23.9	66	14.2	0	2	90	0.00	30.277 
20:15	23.9	23.9	23.9	66	14.2	1	2	90	0.00	30.274 
20:20	23.9	23.9	23.9	67	14.6	1	3	90	0.00	30.274 
20:25	23.9	23.9	23.9	66	14.2	1	3	90	0.00	30.274 
20:30	23.9	23.9	23.9	66	14.2	1	4	90	0.00	30.271 
20:35	24.1	24.1	24.1	65	14.1	2	5	90	0.00	30.271 
20:40	24.1	24.1	24.1	66	14.4	2	6	112	0.00	30.271 
20:45	24.1	24.1	24.1	66	14.4	1	4	90	0.00	30.259 
20:50	23.9	23.9	23.9	67	14.6	1	5	90	0.00	30.259 
20:55	23.9	23.9	23.9	67	14.6	0	2	90	0.00	30.259 
21:00	23.9	23.9	23.9	67	14.6	0	1	90	0.00	30.273 
21:05	23.9	23.9	23.9	67	14.6	0	1	90	0.00	30.273 
21:10	23.9	23.9	23.9	67	14.6	1	2	90	0.00	30.273 
21:15	24.1	24.1	24.1	68	15.1	0	1	90	0.00	30.260 
21:20	24.1	24.1	24.1	68	15.1	1	2	90	0.00	30.260 
21:25	24.2	24.2	24.2	67	14.8	1	4	90	0.00	30.260 
21:30	24.2	24.2	24.2	67	14.8	1	3	90	0.00	30.260 
21:35	24.4	24.4	24.4	67	15.0	1	3	90	0.00	30.260 
21:40	24.2	24.2	24.2	67	14.8	1	3	90	0.00	30.260 
21:45	24.2	24.2	24.2	67	14.8	1	4	90	0.00	30.254 
21:50	24.1	24.1	24.1	67	14.8	2	3	90	0.00	30.254 
21:55	24.1	24.1	24.1	68	15.1	1	5	90	0.00	30.254 
22:00	23.9	23.9	23.9	69	15.2	1	4	90	0.00	30.250 
22:05	23.9	23.9	23.9	69	15.2	2	4	90	0.00	30.250 
22:10	23.9	23.9	23.9	70	15.6	2	3	90	0.00	30.250 
22:15	23.9	23.9	23.9	70	15.6	1	3	90	0.00	30.226 
22:20	23.8	23.8	23.8	71	15.8	2	4	90	0.00	30.226 
22:25	23.9	23.9	23.9	71	15.9	2	4	90	0.00	30.226 
22:30	23.9	23.9	23.9	71	15.9	0	2	90	0.00	30.222 
22:35	23.9	23.9	23.9	72	16.2	0	2	90	0.00	30.222 
22:40	24.1	24.1	24.1	72	16.4	0	3	90	0.00	30.222 
22:45	24.1	24.1	24.1	72	16.4	0	2	180	0.00	30.224 
22:50	24.1	24.1	24.1	72	16.4	0	2	112	0.00	30.224 
22:55	24.2	24.2	24.2	72	16.5	0	2	112	0.00	30.224 
23:00	24.5	24.5	24.5	72	16.8	1	3	112	0.00	30.230 
23:05	24.7	24.7	24.7	72	17.0	0	1	112	0.00	30.230 
23:10	24.8	24.8	24.8	72	17.1	0	2	112	0.00	30.230 
23:15	25.0	25.0	25.0	72	17.3	0	1	112	0.00	30.250 
23:20	25.1	25.1	25.1	72	17.4	0	0	---	0.00	30.250 
23:25	25.1	25.1	25.1	72	17.4	0	1	112	0.00	30.250 
23:30	25.1	25.1	25.1	72	17.4	0	0	---	0.00	30.241 
23:35	25.3	25.3	25.3	72	17.6	0	2	112	0.00	30.241 
23:40	25.3	25.3	25.3	72	17.6	0	2	112	0.00	30.241 
23:45	25.4	25.4	25.4	72	17.7	1	2	112	0.00	30.236 
23:50	25.4	25.4	25.4	72	17.7	0	1	112	0.00	30.236 
23:55	25.4	25.4	25.4	73	18.0	0	1	112	0.00	30.236 

CoCoRaHS
IN-AL-39
A2 Web Hosting
Creative Commons License
GoDaddy
search engine by freefind advanced

loaded 2018-11-18 11:23:30 • last modified 2010-11-18 10:43:29
Privacy PolicyDisclaimer
• wx.awcolley.com is powered by PmWiki v.2002016 •
• all content (unless otherwise noted) © 2018 A W Colley